createdAt,value
2019-02-27T00:01:31.100Z,40.33
2019-02-27T00:04:02.369Z,35.98
2019-02-27T00:06:33.851Z,33.05
2019-02-27T00:09:05.785Z,32.93
2019-02-27T00:11:36.646Z,33.70
2019-02-27T00:14:07.183Z,29.02
2019-02-27T00:16:37.179Z,32.83
2019-02-27T00:19:07.451Z,33.35
2019-02-27T00:21:37.538Z,33.20
2019-02-27T00:24:07.755Z,27.85
2019-02-27T00:26:39.534Z,31.17
2019-02-27T00:29:09.356Z,33.92
2019-02-27T00:31:39.336Z,30.02
2019-02-27T00:34:09.271Z,30.08
2019-02-27T00:36:39.208Z,32.63
2019-02-27T00:39:09.229Z,30.43
2019-02-27T00:41:40.370Z,33.05
2019-02-27T00:44:10.882Z,28.45
2019-02-27T00:46:40.909Z,30.88
2019-02-27T00:49:10.917Z,30.92
2019-02-27T00:51:44.878Z,31.00
2019-02-27T00:54:14.414Z,35.78
2019-02-27T00:56:46.355Z,35.92
2019-02-27T00:59:17.270Z,30.17
2019-02-27T01:01:47.957Z,31.33
2019-02-27T01:04:17.923Z,33.65
2019-02-27T01:06:48.181Z,35.35
2019-02-27T01:09:18.283Z,32.85
2019-02-27T01:11:51.550Z,31.93
2019-02-27T01:14:19.998Z,29.67
2019-02-27T01:16:50.811Z,31.60
2019-02-27T01:19:20.866Z,31.50
2019-02-27T01:21:50.875Z,29.98
2019-02-27T01:24:20.799Z,30.95
2019-02-27T01:26:50.720Z,27.82
2019-02-27T01:29:20.656Z,32.03
2019-02-27T01:31:50.703Z,33.02
2019-02-27T01:34:20.706Z,29.00
2019-02-27T01:36:50.642Z,30.62
2019-02-27T01:39:20.565Z,27.15
2019-02-27T01:41:50.488Z,27.05
2019-02-27T01:44:20.554Z,31.35
2019-02-27T01:46:50.541Z,29.25
2019-02-27T01:49:20.474Z,32.15
2019-02-27T01:51:50.755Z,26.62
2019-02-27T01:54:21.412Z,27.58
2019-02-27T01:56:51.506Z,35.23
2019-02-27T01:59:21.431Z,28.12
2019-02-27T02:01:51.383Z,22.90
2019-02-27T02:04:21.399Z,25.27
2019-02-27T02:06:51.350Z,26.70
2019-02-27T02:09:38.213Z,28.12
2019-02-27T02:12:14.186Z,29.70
2019-02-27T02:15:01.803Z,28.50
2019-02-27T02:17:48.400Z,29.02
2019-02-27T02:20:41.115Z,28.12
2019-02-27T02:23:14.785Z,21.57
2019-02-27T02:26:03.126Z,31.07
2019-02-27T02:28:39.050Z,29.92
2019-02-27T02:31:41.186Z,28.15
2019-02-27T02:34:30.592Z,31.42
2019-02-27T02:37:06.510Z,26.25
2019-02-27T02:39:54.323Z,27.45
2019-02-27T02:42:35.133Z,29.18
2019-02-27T02:45:32.753Z,23.95
2019-02-27T02:48:34.394Z,27.80
2019-02-27T02:51:34.075Z,28.73
2019-02-27T02:54:19.332Z,38.40
2019-02-27T02:57:04.842Z,29.30
2019-02-27T02:59:59.891Z,28.55
2019-02-27T03:02:50.035Z,29.55
2019-02-27T03:05:49.621Z,27.13
2019-02-27T03:08:28.419Z,31.75
2019-02-27T03:11:19.805Z,34.15
2019-02-27T03:14:01.377Z,29.45
2019-02-27T03:16:48.767Z,31.07
2019-02-27T03:19:30.057Z,25.60
2019-02-27T03:22:05.494Z,31.60
2019-02-27T03:24:38.633Z,34.25
2019-02-27T03:27:20.873Z,35.33
2019-02-27T03:29:56.621Z,24.92
2019-02-27T03:32:43.296Z,28.57
2019-02-27T03:35:29.513Z,27.75
2019-02-27T03:38:23.818Z,26.70
2019-02-27T03:41:02.936Z,26.57
2019-02-27T03:43:45.651Z,29.42
2019-02-27T03:46:21.867Z,29.82
2019-02-27T03:49:14.608Z,36.63
2019-02-27T03:52:13.735Z,28.80
2019-02-27T03:55:04.696Z,27.67
2019-02-27T03:57:43.872Z,27.62
2019-02-27T04:00:45.781Z,26.70
2019-02-27T04:03:33.672Z,31.07
2019-02-27T04:06:21.574Z,29.25
2019-02-27T04:08:54.078Z,28.40
2019-02-27T04:11:24.360Z,30.57
2019-02-27T04:13:54.576Z,27.07
2019-02-27T04:16:28.939Z,32.80
2019-02-27T04:19:03.135Z,32.78
2019-02-27T04:21:28.545Z,30.88
2019-02-27T04:23:58.593Z,32.40
2019-02-27T04:26:28.517Z,27.27
2019-02-27T04:29:03.984Z,30.70
2019-02-27T04:31:30.754Z,33.95
2019-02-27T04:34:01.252Z,25.85
2019-02-27T04:36:31.501Z,31.17
2019-02-27T04:39:02.482Z,27.22
2019-02-27T04:41:34.819Z,35.65
2019-02-27T04:44:06.026Z,32.98
2019-02-27T04:46:36.248Z,30.68
2019-02-27T04:49:06.194Z,32.90
2019-02-27T04:51:36.130Z,32.60
2019-02-27T04:54:07.291Z,30.17
2019-02-27T04:56:38.786Z,33.15
2019-02-27T04:59:08.764Z,31.82
2019-02-27T05:01:39.588Z,32.45
2019-02-27T05:04:09.574Z,35.00
2019-02-27T05:06:39.791Z,31.93
2019-02-27T05:09:10.088Z,33.38
2019-02-27T05:11:40.053Z,38.25
2019-02-27T05:14:10.052Z,42.93
2019-02-27T05:16:39.993Z,51.77
2019-02-27T05:19:09.925Z,44.58
2019-02-27T05:21:39.864Z,47.65
2019-02-27T05:24:09.911Z,54.75
2019-02-27T05:26:39.874Z,49.65
2019-02-27T05:29:09.820Z,50.43
2019-02-27T05:31:39.812Z,47.70
2019-02-27T05:34:12.400Z,53.35
2019-02-27T05:36:41.495Z,56.68
2019-02-27T05:39:11.510Z,56.23
2019-02-27T05:41:41.534Z,50.38
2019-02-27T05:44:11.477Z,56.55
2019-02-27T05:46:41.502Z,49.93
2019-02-27T05:49:11.480Z,59.35
2019-02-27T05:51:41.736Z,60.73
2019-02-27T05:54:11.797Z,72.35
2019-02-27T05:56:41.755Z,73.83
2019-02-27T05:59:11.815Z,103.45
2019-02-27T06:01:41.840Z,118.15
2019-02-27T06:04:12.833Z,79.22
2019-02-27T06:06:44.990Z,75.85
2019-02-27T06:09:14.471Z,76.12
2019-02-27T06:11:44.449Z,74.35
2019-02-27T06:14:14.428Z,77.80
2019-02-27T06:16:44.445Z,69.90
2019-02-27T06:19:14.451Z,74.25
2019-02-27T06:21:44.563Z,82.88
2019-02-27T06:24:14.514Z,90.72
2019-02-27T06:26:45.542Z,83.00
2019-02-27T06:29:15.544Z,71.55
2019-02-27T06:31:45.552Z,75.70
2019-02-27T06:34:15.558Z,80.07
2019-02-27T06:36:45.708Z,82.08
2019-02-27T06:39:15.632Z,81.40
2019-02-27T06:41:47.437Z,68.85
2019-02-27T06:44:19.017Z,60.45
2019-02-27T06:46:51.190Z,78.33
2019-02-27T06:49:20.628Z,73.15
2019-02-27T06:51:50.663Z,58.38
2019-02-27T06:54:20.587Z,74.05
2019-02-27T06:56:50.520Z,71.05
2019-02-27T06:59:24.849Z,70.55
2019-02-27T07:01:52.207Z,74.47
2019-02-27T07:04:23.150Z,65.60
2019-02-27T07:06:55.519Z,75.62
2019-02-27T07:09:24.812Z,72.37
2019-02-27T07:11:54.787Z,70.28
2019-02-27T07:14:24.722Z,73.30
2019-02-27T07:16:56.911Z,69.10
2019-02-27T07:19:26.338Z,71.50
2019-02-27T07:21:56.284Z,105.85
2019-02-27T07:24:26.258Z,86.63
2019-02-27T07:26:56.184Z,70.08
2019-02-27T07:29:27.475Z,95.83
2019-02-27T07:31:57.872Z,84.70
2019-02-27T07:34:27.859Z,95.22
2019-02-27T07:36:57.912Z,83.00
2019-02-27T07:39:32.625Z,77.30
2019-02-27T07:42:00.012Z,62.05
2019-02-27T07:44:34.703Z,62.85
2019-02-27T07:47:01.623Z,57.05
2019-02-27T07:49:32.227Z,59.77
2019-02-27T07:52:03.497Z,65.83
2019-02-27T07:54:34.486Z,61.70
2019-02-27T07:57:04.485Z,63.05
2019-02-27T07:59:37.902Z,50.03
2019-02-27T08:02:06.175Z,68.62
2019-02-27T08:04:37.002Z,63.35
2019-02-27T08:07:07.009Z,60.88
2019-02-27T08:09:37.972Z,57.48
2019-02-27T08:12:07.930Z,57.35
2019-02-27T08:14:37.936Z,64.25
2019-02-27T08:17:17.326Z,69.92
2019-02-27T08:19:39.679Z,57.70
2019-02-27T08:22:09.625Z,67.75
2019-02-27T08:24:39.548Z,58.08
2019-02-27T08:27:09.821Z,62.17
2019-02-27T08:29:40.290Z,59.80
2019-02-27T08:32:10.241Z,51.23
2019-02-27T08:34:40.554Z,55.80
2019-02-27T08:37:10.495Z,61.10
2019-02-27T08:39:40.550Z,61.88
2019-02-27T08:42:10.696Z,59.90
2019-02-27T08:44:42.957Z,55.33
2019-02-27T08:47:12.263Z,54.42
2019-02-27T08:49:42.238Z,51.75
2019-02-27T08:52:13.048Z,42.40
2019-02-27T08:54:44.875Z,50.33
2019-02-27T08:57:15.926Z,48.52
2019-02-27T08:59:45.874Z,53.35
2019-02-27T09:02:15.811Z,51.83
2019-02-27T09:04:46.623Z,55.52
2019-02-27T09:07:16.579Z,57.17
2019-02-27T09:09:51.210Z,66.07
2019-02-27T09:12:19.184Z,74.12
2019-02-27T09:14:49.147Z,72.27
2019-02-27T09:17:19.078Z,63.05
2019-02-27T09:19:49.019Z,59.15
2019-02-27T09:22:18.951Z,75.40
2019-02-27T09:24:48.967Z,70.17
2019-02-27T09:27:18.932Z,66.50
2019-02-27T09:29:49.417Z,57.08
2019-02-27T09:32:20.566Z,62.70
2019-02-27T09:34:50.965Z,72.27
2019-02-27T09:37:21.147Z,68.90
2019-02-27T09:39:51.085Z,70.67
2019-02-27T09:42:21.015Z,69.45
2019-02-27T09:44:51.201Z,73.67
2019-02-27T09:47:23.140Z,75.10
2019-02-27T09:49:52.895Z,83.65
2019-02-27T09:52:23.746Z,83.40
2019-02-27T09:54:54.864Z,85.95
2019-02-27T09:57:24.966Z,93.45
2019-02-27T09:59:56.931Z,94.87
2019-02-27T10:02:26.871Z,88.62
2019-02-27T10:05:02.883Z,72.45
2019-02-27T10:07:31.397Z,94.65
2019-02-27T10:10:01.445Z,89.87
2019-02-27T10:12:32.644Z,95.42
2019-02-27T10:15:02.629Z,100.62
2019-02-27T10:17:32.578Z,88.17
2019-02-27T10:20:02.944Z,94.10
2019-02-27T10:22:33.017Z,94.85
2019-02-27T10:25:02.964Z,93.30
2019-02-27T10:27:34.011Z,85.67
2019-02-27T10:30:11.561Z,82.12
2019-02-27T10:32:37.487Z,87.27
2019-02-27T10:35:09.398Z,91.95
2019-02-27T10:37:39.693Z,82.17
2019-02-27T10:40:18.138Z,74.30
2019-02-27T10:42:50.332Z,82.53
2019-02-27T10:45:20.103Z,82.50
2019-02-27T10:47:50.044Z,80.85
2019-02-27T10:50:20.003Z,89.67
2019-02-27T10:52:50.256Z,75.25
2019-02-27T10:55:22.057Z,89.77
2019-02-27T10:57:52.408Z,85.77
2019-02-27T11:00:32.959Z,96.65
2019-02-27T11:03:03.135Z,91.25
2019-02-27T11:05:38.679Z,88.07
2019-02-27T11:08:08.651Z,80.17
2019-02-27T11:10:38.560Z,53.02
2019-02-27T11:13:08.536Z,58.78
2019-02-27T11:15:40.844Z,53.95
2019-02-27T11:18:10.197Z,43.83
2019-02-27T11:20:40.210Z,46.48
2019-02-27T11:23:10.158Z,48.58
2019-02-27T11:25:40.156Z,49.13
2019-02-27T11:28:10.158Z,52.67
2019-02-27T11:30:42.421Z,58.42
2019-02-27T11:33:24.839Z,56.50
2019-02-27T11:35:45.877Z,53.87
2019-02-27T11:38:16.952Z,55.48
2019-02-27T11:40:46.911Z,53.38
2019-02-27T11:43:17.293Z,49.75
2019-02-27T11:45:47.376Z,55.78
2019-02-27T11:48:17.299Z,54.03
2019-02-27T11:50:47.245Z,52.78
2019-02-27T11:53:17.201Z,41.30
2019-02-27T11:55:48.130Z,51.77
2019-02-27T11:58:18.201Z,49.27
2019-02-27T12:00:48.127Z,49.80
2019-02-27T12:03:18.079Z,51.28
2019-02-27T12:05:48.923Z,44.65
2019-02-27T12:08:18.911Z,47.85
2019-02-27T12:10:49.043Z,43.55
2019-02-27T12:13:18.991Z,45.85
2019-02-27T12:15:48.927Z,44.60
2019-02-27T12:18:18.927Z,43.87
2019-02-27T12:20:53.236Z,37.28
2019-02-27T12:23:20.616Z,44.42
2019-02-27T12:25:50.624Z,41.75
2019-02-27T12:28:20.628Z,44.13
2019-02-27T12:30:50.565Z,36.77
2019-02-27T12:33:20.572Z,41.68
2019-02-27T12:35:50.637Z,37.33
2019-02-27T12:38:20.639Z,33.35
2019-02-27T12:40:50.642Z,37.42
2019-02-27T12:43:20.767Z,43.35
2019-02-27T12:45:50.875Z,43.50
2019-02-27T12:48:20.858Z,40.25
2019-02-27T12:50:51.028Z,47.40
2019-02-27T12:53:21.789Z,44.00
2019-02-27T12:55:51.966Z,48.87
2019-02-27T12:58:24.394Z,48.58
2019-02-27T13:00:53.635Z,46.68
2019-02-27T13:03:23.667Z,45.88
2019-02-27T13:05:53.617Z,45.50
2019-02-27T13:08:24.471Z,54.85
2019-02-27T13:10:54.423Z,49.27
2019-02-27T13:13:25.871Z,57.00
2019-02-27T13:15:56.017Z,41.02
2019-02-27T13:18:25.939Z,51.75
2019-02-27T13:20:55.904Z,43.10
2019-02-27T13:23:26.071Z,54.05
2019-02-27T13:25:57.457Z,54.23
2019-02-27T13:28:27.700Z,51.05
2019-02-27T13:30:57.832Z,42.65
2019-02-27T13:33:28.183Z,52.48
2019-02-27T13:35:59.664Z,57.17
2019-02-27T13:38:29.795Z,53.70
2019-02-27T13:40:59.722Z,71.62
2019-02-27T13:43:29.717Z,63.13
2019-02-27T13:45:59.746Z,60.60
2019-02-27T13:48:29.905Z,66.17
2019-02-27T13:51:02.399Z,59.33
2019-02-27T13:53:31.525Z,67.97
2019-02-27T13:56:01.464Z,54.27
2019-02-27T13:58:35.538Z,78.80
2019-02-27T14:01:03.164Z,75.57
2019-02-27T14:03:33.068Z,78.15
2019-02-27T14:06:02.992Z,79.17
2019-02-27T14:08:33.719Z,71.05
2019-02-27T14:11:04.907Z,72.53
2019-02-27T14:13:34.970Z,72.90
2019-02-27T14:16:06.009Z,81.55
2019-02-27T14:18:37.733Z,74.80
2019-02-27T14:21:07.779Z,78.92
2019-02-27T14:23:37.695Z,74.92
2019-02-27T14:26:09.080Z,77.55
2019-02-27T14:28:39.324Z,68.72
2019-02-27T14:31:09.987Z,69.97
2019-02-27T14:33:40.085Z,77.50
2019-02-27T14:36:10.030Z,80.32
2019-02-27T14:38:39.986Z,61.02
2019-02-27T14:41:11.164Z,60.38
2019-02-27T14:43:41.611Z,62.50
2019-02-27T14:46:12.266Z,71.53
2019-02-27T14:48:42.343Z,70.03
2019-02-27T14:51:12.268Z,72.40
2019-02-27T14:53:42.233Z,70.28
2019-02-27T14:56:12.252Z,65.28
2019-02-27T14:58:42.245Z,76.07
2019-02-27T15:01:14.458Z,68.20
2019-02-27T15:03:44.299Z,82.67
2019-02-27T15:06:15.912Z,79.62
2019-02-27T15:08:55.330Z,73.55
2019-02-27T15:11:18.397Z,69.58
2019-02-27T15:13:48.514Z,73.33
2019-02-27T15:16:18.476Z,74.92
2019-02-27T15:18:48.634Z,73.75
2019-02-27T15:21:18.590Z,77.65
2019-02-27T15:23:48.547Z,76.10
2019-02-27T15:26:18.522Z,72.70
2019-02-27T15:28:48.517Z,75.75
2019-02-27T15:31:21.301Z,69.50
2019-02-27T15:33:50.214Z,82.57
2019-02-27T15:36:20.179Z,79.72
2019-02-27T15:38:50.126Z,66.12
2019-02-27T15:41:20.073Z,68.25
2019-02-27T15:43:59.667Z,68.30
2019-02-27T15:46:22.547Z,58.68
2019-02-27T15:48:52.616Z,55.92
2019-02-27T15:51:22.927Z,63.58
2019-02-27T15:53:53.002Z,63.95
2019-02-27T15:56:22.941Z,61.30
2019-02-27T15:58:52.940Z,67.25
2019-02-27T16:01:24.745Z,50.48
2019-02-27T16:03:54.991Z,62.27
2019-02-27T16:06:25.606Z,49.27
2019-02-27T16:08:58.274Z,57.83
2019-02-27T16:11:27.604Z,51.50
2019-02-27T16:13:57.855Z,45.52
2019-02-27T16:16:28.030Z,50.78
2019-02-27T16:18:58.071Z,56.63
2019-02-27T16:21:29.144Z,52.48
2019-02-27T16:23:59.457Z,52.40
2019-02-27T16:26:29.575Z,57.05
2019-02-27T16:28:59.665Z,50.75
2019-02-27T16:31:30.053Z,46.20
2019-02-27T16:34:00.032Z,49.05
2019-02-27T16:36:36.279Z,46.63
2019-02-27T16:39:06.967Z,48.38
2019-02-27T16:41:35.003Z,44.90
2019-02-27T16:44:05.186Z,50.88
2019-02-27T16:46:35.188Z,53.17
2019-02-27T16:49:09.695Z,47.65
2019-02-27T16:51:36.780Z,44.63
2019-02-27T16:54:06.847Z,49.90
2019-02-27T16:56:36.887Z,52.83
2019-02-27T16:59:08.100Z,53.58
2019-02-27T17:01:38.506Z,55.15
2019-02-27T17:04:08.478Z,53.90
2019-02-27T17:06:38.404Z,52.25
2019-02-27T17:09:10.116Z,55.52
2019-02-27T17:11:40.163Z,49.93
2019-02-27T17:14:10.220Z,42.93
2019-02-27T17:16:44.351Z,51.68
2019-02-27T17:19:12.842Z,61.83
2019-02-27T17:21:42.949Z,53.15
2019-02-27T17:24:12.964Z,55.05
2019-02-27T17:26:43.037Z,49.90
2019-02-27T17:29:13.841Z,56.35
2019-02-27T17:31:49.404Z,54.80
2019-02-27T17:34:15.791Z,51.90
2019-02-27T17:36:46.321Z,55.65
2019-02-27T17:39:16.600Z,52.55
2019-02-27T17:41:46.538Z,59.18
2019-02-27T17:44:16.660Z,56.73
2019-02-27T17:46:46.878Z,60.40
2019-02-27T17:49:17.900Z,59.40
2019-02-27T17:51:49.545Z,64.32
2019-02-27T17:54:19.713Z,52.30
2019-02-27T17:56:50.720Z,60.00
2019-02-27T17:59:20.845Z,59.08
2019-02-27T18:01:50.874Z,61.40
2019-02-27T18:04:20.928Z,59.90
2019-02-27T18:06:50.862Z,57.23
2019-02-27T18:09:23.427Z,63.23
2019-02-27T18:11:53.261Z,53.75
2019-02-27T18:14:24.961Z,52.30
2019-02-27T18:16:59.195Z,55.48
2019-02-27T18:19:29.348Z,62.88
2019-02-27T18:21:59.458Z,59.53
2019-02-27T18:24:33.348Z,54.73
2019-02-27T18:27:02.232Z,60.38
2019-02-27T18:29:33.405Z,66.20
2019-02-27T18:32:06.338Z,58.25
2019-02-27T18:34:35.096Z,61.23
2019-02-27T18:37:06.377Z,61.92
2019-02-27T18:39:37.243Z,52.78
2019-02-27T18:42:07.336Z,58.52
2019-02-27T18:44:38.309Z,56.90
2019-02-27T18:47:08.952Z,57.03
2019-02-27T18:49:38.912Z,54.73
2019-02-27T18:52:08.952Z,61.02
2019-02-27T18:54:40.714Z,54.20
2019-02-27T18:57:11.910Z,50.70
2019-02-27T18:59:42.824Z,50.33
2019-02-27T19:02:12.876Z,40.85
2019-02-27T19:04:42.906Z,53.38
2019-02-27T19:07:12.899Z,54.98
2019-02-27T19:09:42.908Z,57.40
2019-02-27T19:12:12.859Z,65.50
2019-02-27T19:14:42.909Z,59.33
2019-02-27T19:17:13.715Z,61.15
2019-02-27T19:19:48.158Z,64.80
2019-02-27T19:22:15.374Z,65.25
2019-02-27T19:24:45.391Z,63.15
2019-02-27T19:27:18.385Z,69.85
2019-02-27T19:29:47.391Z,73.07
2019-02-27T19:32:17.375Z,69.58
2019-02-27T19:34:48.162Z,65.67
2019-02-27T19:37:18.317Z,69.65
2019-02-27T19:39:48.243Z,73.45
2019-02-27T19:42:18.608Z,75.78
2019-02-27T19:44:48.604Z,70.67
2019-02-27T19:47:19.081Z,75.35
2019-02-27T19:49:49.170Z,70.97
2019-02-27T19:52:19.123Z,71.77
2019-02-27T19:54:51.604Z,77.27
2019-02-27T19:57:20.908Z,78.07
2019-02-27T19:59:51.049Z,72.55
2019-02-27T20:02:21.619Z,85.92
2019-02-27T20:04:53.364Z,84.65
2019-02-27T20:07:23.324Z,80.20
2019-02-27T20:09:54.356Z,82.47
2019-02-27T20:12:24.995Z,64.87
2019-02-27T20:14:54.984Z,75.40
2019-02-27T20:17:26.651Z,91.32
2019-02-27T20:20:00.500Z,89.92
2019-02-27T20:22:29.654Z,80.22
2019-02-27T20:24:59.605Z,88.40
2019-02-27T20:27:29.787Z,84.47
2019-02-27T20:29:59.861Z,88.52
2019-02-27T20:32:29.973Z,86.70
2019-02-27T20:34:59.943Z,94.77
2019-02-27T20:37:30.092Z,90.15
2019-02-27T20:40:00.258Z,89.77
2019-02-27T20:42:30.264Z,92.78
2019-02-27T20:45:00.278Z,91.45
2019-02-27T20:47:30.752Z,93.35
2019-02-27T20:50:01.076Z,105.78
2019-02-27T20:52:31.502Z,94.30
2019-02-27T20:55:01.487Z,95.22
2019-02-27T20:57:32.737Z,97.97
2019-02-27T21:00:02.924Z,100.42
2019-02-27T21:02:34.097Z,89.65
2019-02-27T21:05:06.775Z,96.08
2019-02-27T21:07:36.168Z,97.10
2019-02-27T21:10:09.309Z,99.50
2019-02-27T21:12:40.792Z,96.90
2019-02-27T21:15:13.833Z,102.78
2019-02-27T21:17:44.564Z,92.85
2019-02-27T21:20:16.542Z,95.85
2019-02-27T21:22:46.249Z,94.97
2019-02-27T21:25:16.323Z,94.07
2019-02-27T21:27:46.455Z,90.20
2019-02-27T21:30:19.077Z,78.72
2019-02-27T21:32:49.141Z,90.83
2019-02-27T21:35:19.088Z,86.95
2019-02-27T21:37:50.957Z,82.08
2019-02-27T21:40:20.974Z,82.62
2019-02-27T21:42:51.890Z,82.15
2019-02-27T21:45:25.246Z,79.25
2019-02-27T21:47:55.251Z,80.15
2019-02-27T21:50:25.859Z,76.45
2019-02-27T21:52:55.928Z,71.22
2019-02-27T21:55:26.006Z,87.90
2019-02-27T21:57:58.016Z,91.97
2019-02-27T22:00:29.930Z,84.00
2019-02-27T22:03:03.654Z,91.37
2019-02-27T22:05:31.847Z,92.42
2019-02-27T22:08:01.800Z,96.22
2019-02-27T22:10:33.424Z,89.95
2019-02-27T22:13:09.358Z,89.25
2019-02-27T22:15:35.117Z,74.07
2019-02-27T22:18:08.365Z,75.60
2019-02-27T22:20:37.613Z,79.75
2019-02-27T22:23:07.547Z,74.77
2019-02-27T22:25:37.594Z,83.62
2019-02-27T22:28:07.563Z,86.02
2019-02-27T22:30:37.482Z,74.25
2019-02-27T22:33:07.436Z,89.97
2019-02-27T22:35:38.538Z,80.50
2019-02-27T22:38:08.797Z,85.42
2019-02-27T22:40:39.196Z,100.47
2019-02-27T22:43:09.614Z,89.32
2019-02-27T22:45:43.852Z,91.08
2019-02-27T22:48:12.299Z,99.85
2019-02-27T22:50:42.661Z,96.65
2019-02-27T22:53:12.649Z,95.30
2019-02-27T22:55:43.150Z,98.75
2019-02-27T22:58:13.399Z,96.10
2019-02-27T23:00:56.015Z,88.67
2019-02-27T23:03:38.518Z,92.60
2019-02-27T23:06:12.108Z,87.75
2019-02-27T23:08:41.845Z,80.10
2019-02-27T23:11:12.302Z,90.62
2019-02-27T23:13:47.485Z,79.95
2019-02-27T23:16:18.824Z,85.77
2019-02-27T23:18:49.559Z,82.37
2019-02-27T23:21:19.574Z,83.03
2019-02-27T23:23:49.525Z,73.00
2019-02-27T23:26:20.196Z,79.60
2019-02-27T23:28:51.093Z,80.77
2019-02-27T23:31:23.337Z,77.10
2019-02-27T23:33:52.808Z,86.08
2019-02-27T23:36:22.865Z,79.15
2019-02-27T23:38:53.087Z,76.00
2019-02-27T23:41:23.855Z,80.45
2019-02-27T23:43:54.959Z,78.28
2019-02-27T23:46:25.214Z,76.97
2019-02-27T23:48:55.870Z,76.85
2019-02-27T23:51:26.728Z,70.87
2019-02-27T23:53:58.583Z,70.87
2019-02-27T23:56:28.459Z,75.67
2019-02-27T23:59:02.343Z,66.72
